Time;durP1;ratioP1;P1;durP2;ratioP2;P2;SDS_P1;SDS_P2;PMS_P1;PMS_P2;Temp;Humidity;BMP_temperature;BMP_pressure;BME280_temperature;BME280_humidity;BME280_pressure;Samples;Min_cycle;Max_cycle;Signal;HPM_P1;HPM_P2
2023/04/28 00:00:10;;;;;;;13.02;7.03;;;;;;;;;;4893768;29;20013;-95
2023/04/28 00:17:10;;;;;;;;;;;;;;;;;;;;;
2023/04/28 00:19:50;;;;;;;15.85;7.30;;;;;;;;;;4839668;29;20112;-96
2023/04/28 00:22:45;;;;;;;14.90;8.25;;;;;;;;;;4854363;29;20033;-95
2023/04/28 00:31:24;;;;;;;12.55;7.65;;;;;;;;;;4872629;29;20041;-94
2023/04/28 00:33:59;;;;;;;15.93;8.57;;;;;;;;;;4866361;29;20029;-95
2023/04/28 00:36:31;;;;;;;16.38;8.65;;;;;;;;;;4847443;29;20090;-96
2023/04/28 00:39:24;;;;;;;16.20;8.27;;;;;;;;;;4862556;29;20038;-94
2023/04/28 00:42:03;;;;;;;;;;;;;;;;;;;;;
2023/04/28 00:44:57;;;;;;;;;;;;;;;;;;;;;
2023/04/28 00:47:55;;;;;;;16.65;8.40;;;;;;;;;;4882747;29;20033;-95
2023/04/28 00:56:32;;;;;;;;;;;;;;;;;;;;;
2023/04/28 00:59:31;;;;;;;;;;;;;;;;;;;;;
2023/04/28 01:02:01;;;;;;;14.13;8.90;;;;;;;;;;4885636;29;20097;-95
2023/04/28 01:04:53;;;;;;;13.70;8.20;;;;;;;;;;4896805;29;20029;-96
2023/04/28 01:07:25;;;;;;;15.52;8.65;;;;;;;;;;4882271;29;20096;-93
2023/04/28 01:10:31;;;;;;;14.65;8.70;;;;;;;;;;4883209;29;20032;-96
2023/04/28 01:13:18;;;;;;;13.68;8.43;;;;;;;;;;4883674;29;20041;-95
2023/04/28 01:16:33;;;;;;;;;;;;;;;;;;;;;
2023/04/28 01:22:30;;;;;;;13.00;7.45;;;;;;;;;;4828941;29;20062;-96
2023/04/28 01:28:02;;;;;;;15.57;8.10;;;;;;;;;;4959837;23;20064;-96
2023/04/28 01:30:41;;;;;;;;;;;;;;;;;;;;;
2023/04/28 01:33:13;;;;;;;15.98;7.78;;;;;;;;;;4885543;29;20120;-96
2023/04/28 01:36:01;;;;;;;12.60;8.35;;;;;;;;;;4898864;29;20451;-96
2023/04/28 01:41:48;;;;;;;12.38;7.20;;;;;;;;;;4881002;29;20112;-95
2023/04/28 01:44:22;;;;;;;12.25;7.10;;;;;;;;;;4886536;29;20120;-96
2023/04/28 01:46:48;;;;;;;14.70;7.60;;;;;;;;;;4883877;29;20048;-96
2023/04/28 01:49:50;;;;;;;13.73;8.00;;;;;;;;;;4899825;29;20029;-95
2023/04/28 01:52:46;;;;;;;12.90;7.28;;;;;;;;;;4900552;29;20052;-96
2023/04/28 01:55:32;;;;;;;15.32;7.65;;;;;;;;;;4891992;29;20025;-95
2023/04/28 01:58:19;;;;;;;;;;;;;;;;;;;;;
2023/04/28 02:00:46;;;;;;;13.18;7.90;;;;;;;;;;4867111;29;20105;-96
2023/04/28 02:03:15;;;;;;;16.55;8.38;;;;;;;;;;4884734;29;20040;-96
2023/04/28 02:05:46;;;;;;;12.95;8.23;;;;;;;;;;4886663;29;20072;-96
2023/04/28 02:08:24;;;;;;;12.93;7.57;;;;;;;;;;4885422;29;20109;-95
2023/04/28 02:10:55;;;;;;;17.42;7.95;;;;;;;;;;4888057;29;20029;-95
2023/04/28 02:13:26;;;;;;;12.82;8.57;;;;;;;;;;4900766;29;20414;-96
2023/04/28 02:15:57;;;;;;;16.15;8.13;;;;;;;;;;4899677;29;20032;-96
2023/04/28 02:18:28;;;;;;;16.45;8.38;;;;;;;;;;4886576;29;20049;-95
2023/04/28 02:20:57;;;;;;;17.38;8.95;;;;;;;;;;4904343;29;20033;-95
2023/04/28 02:23:33;;;;;;;15.25;8.95;;;;;;;;;;4903377;29;20093;-95
2023/04/28 02:26:05;;;;;;;16.45;8.52;;;;;;;;;;4881354;29;20116;-96
2023/04/28 02:28:39;;;;;;;21.45;9.07;;;;;;;;;;4880720;29;20451;-95
2023/04/28 02:31:12;;;;;;;13.40;8.48;;;;;;;;;;4883961;29;20145;-95
2023/04/28 02:33:43;;;;;;;13.95;8.45;;;;;;;;;;4899887;29;20051;-96
2023/04/28 02:36:19;;;;;;;13.88;7.90;;;;;;;;;;4899729;29;20025;-96
2023/04/28 02:38:48;;;;;;;15.50;9.25;;;;;;;;;;4900434;29;20085;-95
2023/04/28 02:41:30;;;;;;;;;;;;;;;;;;;;;
2023/04/28 02:43:59;;;;;;;15.32;8.93;;;;;;;;;;4885444;29;20112;-96
2023/04/28 02:46:52;;;;;;;17.42;8.60;;;;;;;;;;4885948;29;20033;-96
2023/04/28 02:49:20;;;;;;;18.70;9.25;;;;;;;;;;4900394;29;20036;-93
2023/04/28 02:51:46;;;;;;;17.50;9.05;;;;;;;;;;4914029;29;20041;-95
2023/04/28 02:54:35;;;;;;;15.82;8.27;;;;;;;;;;4891149;29;20029;-96
2023/04/28 02:57:00;;;;;;;15.73;9.35;;;;;;;;;;4885069;29;20037;-95
2023/04/28 02:59:34;;;;;;;17.80;9.40;;;;;;;;;;4900785;29;20029;-95
2023/04/28 03:02:34;;;;;;;12.95;8.02;;;;;;;;;;4881600;29;20027;-95
2023/04/28 03:04:57;;;;;;;16.35;9.25;;;;;;;;;;4881727;29;20448;-96
2023/04/28 03:07:35;;;;;;;18.52;9.52;;;;;;;;;;4881115;29;20029;-94
2023/04/28 03:10:01;;;;;;;18.40;9.48;;;;;;;;;;4885305;29;20033;-95
2023/04/28 03:12:35;;;;;;;16.90;9.27;;;;;;;;;;4902566;29;20053;-93
2023/04/28 03:15:07;;;;;;;17.85;8.63;;;;;;;;;;4888533;29;20111;-94
2023/04/28 03:17:44;;;;;;;16.58;8.45;;;;;;;;;;4885013;29;20037;-95
2023/04/28 03:20:20;;;;;;;16.25;8.50;;;;;;;;;;4891756;29;20036;-96
2023/04/28 03:22:53;;;;;;;16.92;8.85;;;;;;;;;;4899472;29;20109;-94
2023/04/28 03:25:20;;;;;;;16.73;8.57;;;;;;;;;;4899471;29;20033;-95
2023/04/28 03:28:02;;;;;;;16.55;8.18;;;;;;;;;;4886088;29;20042;-94
2023/04/28 03:30:54;;;;;;;14.90;8.57;;;;;;;;;;4868629;29;20061;-94
2023/04/28 03:33:37;;;;;;;15.85;8.60;;;;;;;;;;4832017;29;20074;-95
2023/04/28 03:36:07;;;;;;;17.95;9.20;;;;;;;;;;4875160;29;20099;-93
2023/04/28 03:38:38;;;;;;;19.95;10.23;;;;;;;;;;4853362;29;20029;-95
2023/04/28 03:41:07;;;;;;;18.95;9.43;;;;;;;;;;4881011;29;20044;-95
2023/04/28 03:43:37;;;;;;;18.23;9.20;;;;;;;;;;4862395;29;20033;-93
2023/04/28 03:46:06;;;;;;;12.43;7.95;;;;;;;;;;4864419;29;20109;-95
2023/04/28 03:48:41;;;;;;;13.55;8.13;;;;;;;;;;4868611;29;20037;-95
2023/04/28 03:53:56;;;;;;;13.45;8.45;;;;;;;;;;4874382;29;20131;-94
2023/04/28 03:56:40;;;;;;;14.25;7.68;;;;;;;;;;4864900;29;20025;-95
2023/04/28 03:59:16;;;;;;;14.98;8.15;;;;;;;;;;4870565;29;20033;-94
2023/04/28 04:10:19;;;;;;;;;;;;;;;;;;;;;
2023/04/28 04:12:53;;;;;;;;;;;;;;;;;;4884129;29;20051;-95
2023/04/28 04:18:29;;;;;;;12.18;7.05;;;;;;;;;;4858896;29;20038;-94
2023/04/28 04:21:18;;;;;;;14.07;7.43;;;;;;;;;;4896206;29;20029;-94
2023/04/28 04:24:09;;;;;;;14.05;7.07;;;;;;;;;;4878993;29;20045;-95
2023/04/28 04:26:44;;;;;;;13.50;6.82;;;;;;;;;;4897858;29;20033;-95
2023/04/28 04:29:16;;;;;;;15.82;7.55;;;;;;;;;;4882188;29;20041;-95
2023/04/28 04:31:44;;;;;;;11.55;7.00;;;;;;;;;;4883438;29;20066;-93
2023/04/28 04:34:15;;;;;;;13.10;7.18;;;;;;;;;;4899431;29;20037;-95
2023/04/28 04:36:41;;;;;;;13.18;6.53;;;;;;;;;;4883546;29;20044;-94
2023/04/28 04:39:24;;;;;;;14.65;7.45;;;;;;;;;;4896395;29;20108;-92
2023/04/28 04:41:51;;;;;;;11.80;7.47;;;;;;;;;;4896798;29;20496;-92
2023/04/28 04:44:19;;;;;;;10.93;7.03;;;;;;;;;;4896962;29;20033;-95
2023/04/28 04:49:36;;;;;;;11.82;7.53;;;;;;;;;;4882416;29;20033;-95
2023/04/28 04:52:48;;;;;;;11.82;6.78;;;;;;;;;;4904874;29;20048;-96
2023/04/28 05:11:35;;;;;;;11.07;6.82;;;;;;;;;;4941124;23;20077;-96
2023/04/28 05:14:01;;;;;;;11.25;6.47;;;;;;;;;;4907112;29;20068;-93
2023/04/28 05:16:30;;;;;;;11.93;7.05;;;;;;;;;;4902605;29;20089;-96
2023/04/28 05:19:22;;;;;;;11.25;7.07;;;;;;;;;;4905311;29;20096;-95
2023/04/28 05:35:19;;;;;;;13.85;6.70;;;;;;;;;;4836277;29;20072;-92
2023/04/28 06:32:03;;;;;;;9.85;6.35;;;;;;;;;;5057298;23;20049;-92
2023/04/28 06:34:36;;;;;;;9.90;6.38;;;;;;;;;;4905149;29;20025;-94
2023/04/28 06:56:36;;;;;;;9.30;5.53;;;;;;;;;;4892411;29;20040;-95
2023/04/28 07:13:30;;;;;;;8.98;6.10;;;;;;;;;;5007416;23;20048;-93
2023/04/28 07:15:59;;;;;;;8.90;5.47;;;;;;;;;;4905080;29;20037;-92
2023/04/28 10:37:13;;;;;;;15.05;5.80;;;;;;;;;;5958388;23;20028;-94
2023/04/28 11:19:11;;;;;;;9.43;3.25;;;;;;;;;;5922451;23;19929;-92
2023/04/28 11:26:58;;;;;;;10.57;3.55;;;;;;;;;;5643738;23;20080;-94
2023/04/28 11:29:45;;;;;;;6.00;3.00;;;;;;;;;;4906075;29;20044;-94
2023/04/28 11:34:51;;;;;;;6.82;3.25;;;;;;;;;;5127966;23;20056;-93
2023/04/28 11:38:03;;;;;;;8.30;3.35;;;;;;;;;;4888739;29;20045;-95
2023/04/28 13:41:13;;;;;;;9.55;4.32;;;;;;;;;;5607781;23;20060;-94
2023/04/28 13:53:38;;;;;;;8.82;4.70;;;;;;;;;;4894335;29;20052;-93
2023/04/28 13:56:20;;;;;;;11.48;4.30;;;;;;;;;;4902064;29;20040;-94
2023/04/28 14:10:52;;;;;;;8.88;3.53;;;;;;;;;;4866126;29;20038;-94
2023/04/28 14:13:38;;;;;;;10.23;4.05;;;;;;;;;;4847153;29;20064;-94
2023/04/28 14:19:28;;;;;;;9.32;3.83;;;;;;;;;;4837441;29;20428;-94
2023/04/28 14:21:57;;;;;;;10.70;3.70;;;;;;;;;;4844468;29;20116;-94
2023/04/28 14:24:26;;;;;;;9.65;3.70;;;;;;;;;;4844537;29;20033;-95
2023/04/28 14:26:52;;;;;;;11.27;3.83;;;;;;;;;;4845253;29;20045;-93
2023/04/28 14:29:24;;;;;;;8.80;3.72;;;;;;;;;;4888880;29;20132;-93
2023/04/28 14:31:57;;;;;;;10.07;3.72;;;;;;;;;;4895130;29;20025;-93
2023/04/28 14:37:17;;;;;;;12.95;3.78;;;;;;;;;;4878107;29;19949;-93
2023/04/28 14:39:43;;;;;;;;;;;;;;;;;;4883042;29;20037;-92
2023/04/28 14:42:18;;;;;;;11.10;3.50;;;;;;;;;;4901479;29;19918;-91
2023/04/28 14:47:47;;;;;;;14.55;3.60;;;;;;;;;;5089749;23;20064;-92
2023/04/28 14:50:18;;;;;;;8.13;3.33;;;;;;;;;;4889752;29;20021;-94
2023/04/28 14:53:04;;;;;;;8.15;3.20;;;;;;;;;;4908663;29;20045;-95
2023/04/28 14:55:42;;;;;;;7.18;3.30;;;;;;;;;;4905387;29;20032;-95
2023/04/28 14:58:08;;;;;;;9.60;3.28;;;;;;;;;;4905233;29;20073;-93
2023/04/28 15:00:37;;;;;;;8.95;3.33;;;;;;;;;;4887111;29;20033;-94
2023/04/28 15:03:14;;;;;;;9.63;3.35;;;;;;;;;;4884659;29;20049;-95
2023/04/28 15:05:49;;;;;;;7.28;2.72;;;;;;;;;;4903596;23;20126;-95
2023/04/28 15:08:15;;;;;;;7.80;2.90;;;;;;;;;;4884873;29;20030;-94
2023/04/28 15:13:45;;;;;;;7.82;3.10;;;;;;;;;;4962092;23;20064;-92
2023/04/28 15:19:16;;;;;;;7.90;3.17;;;;;;;;;;4864519;29;20057;-92
2023/04/28 15:21:42;;;;;;;11.73;3.50;;;;;;;;;;4878539;29;20325;-89
2023/04/28 15:24:12;;;;;;;7.32;3.03;;;;;;;;;;4878757;29;20174;-91
2023/04/28 15:38:20;;;;;;;8.50;3.90;;;;;;;;;;4862467;29;20041;-92
2023/04/28 15:40:52;;;;;;;9.70;3.55;;;;;;;;;;4867341;29;20060;-92
2023/04/28 15:43:21;;;;;;;14.45;3.78;;;;;;;;;;4882144;29;20025;-93
2023/04/28 15:48:36;;;;;;;;;;;;;;;;;;;;;
2023/04/28 15:51:05;;;;;;;13.38;3.47;;;;;;;;;;4864925;29;20034;-90
2023/04/28 15:53:39;;;;;;;7.78;3.35;;;;;;;;;;4879939;29;20046;-95
2023/04/28 15:56:05;;;;;;;;;;;;;;;;;;4881002;29;20589;-91
2023/04/28 15:58:40;;;;;;;9.93;3.80;;;;;;;;;;4864547;29;19960;-93
2023/04/28 16:01:07;;;;;;;10.57;4.10;;;;;;;;;;4862800;29;20059;-91
2023/04/28 16:03:42;;;;;;;9.80;4.25;;;;;;;;;;4846278;29;20048;-92
2023/04/28 16:06:12;;;;;;;7.70;3.22;;;;;;;;;;4846143;29;20435;-92
2023/04/28 16:08:41;;;;;;;8.70;3.35;;;;;;;;;;4846258;29;20056;-90
2023/04/28 16:11:16;;;;;;;7.90;3.40;;;;;;;;;;4846208;29;20045;-89
2023/04/28 16:13:45;;;;;;;19.00;3.53;;;;;;;;;;4846298;29;20049;-89
2023/04/28 16:16:14;;;;;;;8.85;3.50;;;;;;;;;;4846644;29;20045;-91
2023/04/28 16:18:43;;;;;;;8.00;3.28;;;;;;;;;;4846638;29;20033;-90
2023/04/28 16:21:21;;;;;;;6.30;3.25;;;;;;;;;;4846435;29;20041;-90
2023/04/28 16:23:56;;;;;;;8.07;3.30;;;;;;;;;;4846335;29;20041;-89
2023/04/28 16:29:25;;;;;;;7.65;3.28;;;;;;;;;;4843196;29;20037;-90
2023/04/28 16:31:57;;;;;;;11.20;3.60;;;;;;;;;;4866293;29;20077;-89
2023/04/28 16:34:26;;;;;;;11.43;3.88;;;;;;;;;;4879650;29;20037;-89
2023/04/28 16:39:56;;;;;;;11.20;3.92;;;;;;;;;;4863201;29;20383;-88
2023/04/28 16:42:22;;;;;;;11.57;4.22;;;;;;;;;;4877357;29;20025;-90
2023/04/28 16:44:51;;;;;;;7.88;4.28;;;;;;;;;;4862068;29;20033;-88
2023/04/28 16:47:29;;;;;;;7.80;3.60;;;;;;;;;;4872256;29;20046;-89
2023/04/28 16:50:01;;;;;;;9.10;3.67;;;;;;;;;;4877921;29;20117;-88
2023/04/28 16:52:34;;;;;;;8.98;3.13;;;;;;;;;;4876958;29;20037;-89
2023/04/28 16:55:03;;;;;;;9.23;3.53;;;;;;;;;;4876902;29;20052;-92
2023/04/28 16:57:32;;;;;;;9.75;3.78;;;;;;;;;;4862557;29;20585;-89
2023/04/28 17:00:02;;;;;;;6.80;3.47;;;;;;;;;;4876934;29;20056;-90
2023/04/28 17:02:32;;;;;;;8.15;4.10;;;;;;;;;;4876884;29;20112;-90
2023/04/28 17:05:00;;;;;;;10.70;4.07;;;;;;;;;;4876571;29;20557;-89
2023/04/28 17:07:32;;;;;;;8.88;4.13;;;;;;;;;;4876252;29;20486;-90
2023/04/28 17:10:07;;;;;;;11.68;4.95;;;;;;;;;;4875984;29;20501;-92
2023/04/28 17:12:33;;;;;;;9.10;4.75;;;;;;;;;;4875948;29;20045;-89
2023/04/28 17:15:00;;;;;;;13.13;5.00;;;;;;;;;;4876522;29;20454;-89
2023/04/28 17:17:27;;;;;;;13.95;5.25;;;;;;;;;;4861406;29;20022;-91
2023/04/28 17:19:53;;;;;;;11.10;5.05;;;;;;;;;;4876599;29;20042;-92
2023/04/28 17:22:20;;;;;;;11.75;4.43;;;;;;;;;;4876403;29;20475;-90
2023/04/28 17:24:51;;;;;;;14.93;6.82;;;;;;;;;;4881427;29;20030;-89
2023/04/28 17:27:20;;;;;;;19.17;6.97;;;;;;;;;;4887026;29;20479;-91
2023/04/28 17:30:03;;;;;;;15.27;6.78;;;;;;;;;;4863168;29;20036;-92
2023/04/28 17:32:31;;;;;;;16.02;6.65;;;;;;;;;;4879967;29;20510;-88
2023/04/28 17:34:58;;;;;;;14.02;6.10;;;;;;;;;;4868556;29;20427;-93
2023/04/28 17:49:18;;;;;;;21.63;11.43;;;;;;;;;;4860754;29;20101;-94
2023/04/28 17:51:47;;;;;;;22.55;13.02;;;;;;;;;;4841536;29;20065;-93
2023/04/28 17:57:22;;;;;;;16.55;11.23;;;;;;;;;;4860447;29;20104;-94
2023/04/28 18:14:21;;;;;;;;;;;;;;;;;;;;;
2023/04/28 18:17:32;;;;;;;10.55;5.57;;;;;;;;;;4881221;29;20067;-94
2023/04/28 18:23:12;;;;;;;11.77;5.88;;;;;;;;;;4873825;29;20051;-96
2023/04/28 18:25:47;;;;;;;13.50;7.43;;;;;;;;;;4877598;29;20041;-95
2023/04/28 18:28:13;;;;;;;10.45;7.10;;;;;;;;;;4874340;29;20037;-94
2023/04/28 18:33:07;;;;;;;13.93;7.80;;;;;;;;;;4868168;29;20487;-92
2023/04/28 18:35:45;;;;;;;12.40;6.65;;;;;;;;;;4885185;29;20130;-96
2023/04/28 18:38:12;;;;;;;14.05;8.05;;;;;;;;;;4883131;29;20128;-95
2023/04/28 18:41:03;;;;;;;16.77;8.63;;;;;;;;;;4882913;29;20097;-96
2023/04/28 18:43:32;;;;;;;11.55;8.27;;;;;;;;;;4880182;29;20040;-92
2023/04/28 18:46:03;;;;;;;13.80;9.43;;;;;;;;;;4863931;29;20039;-92
2023/04/28 18:48:29;;;;;;;13.30;10.27;;;;;;;;;;4880955;29;20034;-92
2023/04/28 18:51:21;;;;;;;11.35;8.23;;;;;;;;;;4882747;29;20025;-92
2023/04/28 18:53:47;;;;;;;14.15;7.22;;;;;;;;;;4879719;29;20053;-92
2023/04/28 18:56:14;;;;;;;11.63;8.40;;;;;;;;;;4879703;29;20116;-91
2023/04/28 18:58:40;;;;;;;15.43;10.73;;;;;;;;;;4880586;29;20099;-91
2023/04/28 19:01:16;;;;;;;14.90;9.32;;;;;;;;;;4880327;29;20033;-93
2023/04/28 19:03:43;;;;;;;16.42;10.95;;;;;;;;;;4879894;29;20474;-93
2023/04/28 19:06:09;;;;;;;16.83;11.07;;;;;;;;;;4880846;29;20037;-92
2023/04/28 19:08:37;;;;;;;24.58;12.95;;;;;;;;;;4898687;29;20048;-93
2023/04/28 19:11:05;;;;;;;19.65;12.55;;;;;;;;;;4881600;29;20467;-92
2023/04/28 19:13:43;;;;;;;17.23;12.32;;;;;;;;;;4878798;29;20045;-95
2023/04/28 19:16:12;;;;;;;20.70;11.80;;;;;;;;;;4879044;29;20037;-93
2023/04/28 19:18:40;;;;;;;21.20;13.23;;;;;;;;;;4878875;29;20061;-94
2023/04/28 19:21:07;;;;;;;17.92;12.02;;;;;;;;;;4878954;29;20033;-93
2023/04/28 19:23:33;;;;;;;14.70;9.93;;;;;;;;;;4878458;29;20478;-93
2023/04/28 19:26:03;;;;;;;16.38;9.77;;;;;;;;;;4878750;29;20033;-92
2023/04/28 19:28:29;;;;;;;16.92;11.25;;;;;;;;;;4878723;29;20064;-92
2023/04/28 19:31:02;;;;;;;18.70;12.27;;;;;;;;;;4878541;29;20030;-93
2023/04/28 19:33:33;;;;;;;16.65;11.48;;;;;;;;;;4877786;29;20158;-93
2023/04/28 19:36:06;;;;;;;18.23;12.05;;;;;;;;;;4878026;29;20029;-92
2023/04/28 19:38:44;;;;;;;13.95;9.75;;;;;;;;;;4878426;29;20114;-93
2023/04/28 19:41:14;;;;;;;16.98;10.65;;;;;;;;;;4877656;29;20086;-92
2023/04/28 19:43:40;;;;;;;13.27;9.73;;;;;;;;;;4878472;29;20032;-93
2023/04/28 19:46:06;;;;;;;16.60;10.52;;;;;;;;;;4878071;29;20603;-92
2023/04/28 19:48:33;;;;;;;18.45;10.30;;;;;;;;;;4878408;29;20394;-92
2023/04/28 19:51:17;;;;;;;16.75;11.07;;;;;;;;;;4877519;29;20478;-94
2023/04/28 19:53:51;;;;;;;15.45;9.98;;;;;;;;;;4877673;29;20038;-92
2023/04/28 19:56:17;;;;;;;;;;;;;;;;;;4878479;29;20535;-92
2023/04/28 19:58:43;;;;;;;14.57;9.32;;;;;;;;;;4877790;29;19908;-93
2023/04/28 20:01:09;;;;;;;15.43;9.07;;;;;;;;;;4877715;29;20040;-93
2023/04/28 20:03:38;;;;;;;14.27;10.30;;;;;;;;;;4877988;29;20513;-93
2023/04/28 20:06:05;;;;;;;13.20;10.27;;;;;;;;;;4877993;29;20543;-92
2023/04/28 20:08:33;;;;;;;14.15;10.52;;;;;;;;;;4878126;29;20060;-93
2023/04/28 20:10:59;;;;;;;13.60;9.57;;;;;;;;;;4877982;29;20053;-93
2023/04/28 20:13:29;;;;;;;13.40;9.43;;;;;;;;;;4877975;29;20056;-92
2023/04/28 20:15:55;;;;;;;15.10;9.18;;;;;;;;;;4878093;29;20065;-93
2023/04/28 20:18:25;;;;;;;17.35;10.95;;;;;;;;;;4863808;29;20037;-93
2023/04/28 20:20:54;;;;;;;17.67;10.70;;;;;;;;;;4877657;29;20033;-94
2023/04/28 20:23:25;;;;;;;17.45;11.65;;;;;;;;;;4877932;29;20475;-95
2023/04/28 20:25:54;;;;;;;14.48;10.20;;;;;;;;;;4877841;29;20037;-94
2023/04/28 20:28:23;;;;;;;15.35;10.38;;;;;;;;;;4877944;29;20022;-90
2023/04/28 20:33:53;;;;;;;13.00;8.30;;;;;;;;;;4863133;29;20080;-92
2023/04/28 20:36:19;;;;;;;13.77;9.48;;;;;;;;;;4877945;29;20342;-93
2023/04/28 20:38:48;;;;;;;14.80;9.40;;;;;;;;;;4878152;29;20463;-92
2023/04/28 20:41:17;;;;;;;16.92;10.68;;;;;;;;;;4877718;29;20026;-93
2023/04/28 20:43:46;;;;;;;15.02;10.65;;;;;;;;;;4876653;29;20459;-92
2023/04/28 20:46:27;;;;;;;14.60;8.27;;;;;;;;;;4877716;29;20037;-96
2023/04/28 20:48:56;;;;;;;11.68;8.52;;;;;;;;;;4894028;29;20040;-94
2023/04/28 20:51:23;;;;;;;16.95;10.35;;;;;;;;;;4883028;29;20034;-91
2023/04/28 20:53:49;;;;;;;13.75;9.15;;;;;;;;;;4877858;29;20482;-92
2023/04/28 20:56:18;;;;;;;16.10;9.35;;;;;;;;;;4877157;29;20129;-93
2023/04/28 20:58:57;;;;;;;13.50;9.38;;;;;;;;;;4877191;29;20116;-92
2023/04/28 21:01:26;;;;;;;17.50;9.60;;;;;;;;;;4876877;29;20030;-92
2023/04/28 21:03:52;;;;;;;17.35;10.77;;;;;;;;;;4877058;29;20190;-94
2023/04/28 21:06:21;;;;;;;18.98;10.65;;;;;;;;;;4861517;29;20025;-93
2023/04/28 21:09:16;;;;;;;14.15;9.30;;;;;;;;;;4877148;29;20037;-94
2023/04/28 21:11:46;;;;;;;14.35;10.00;;;;;;;;;;4876109;29;20471;-95
2023/04/28 21:14:14;;;;;;;15.40;9.30;;;;;;;;;;4896669;29;20045;-95
2023/04/28 21:16:47;;;;;;;16.20;9.98;;;;;;;;;;4878475;29;20030;-92
2023/04/28 21:19:17;;;;;;;16.25;10.43;;;;;;;;;;4878418;29;20439;-93
2023/04/28 21:21:47;;;;;;;14.93;10.02;;;;;;;;;;4876633;29;20070;-95
2023/04/28 21:24:16;;;;;;;15.52;10.27;;;;;;;;;;4877681;29;20029;-93
2023/04/28 21:26:46;;;;;;;17.35;11.20;;;;;;;;;;4876579;29;20025;-93
2023/04/28 21:29:13;;;;;;;16.45;9.85;;;;;;;;;;4876798;29;20419;-93
2023/04/28 21:31:46;;;;;;;16.70;10.93;;;;;;;;;;4876661;29;20029;-93
2023/04/28 21:34:22;;;;;;;18.35;10.70;;;;;;;;;;4876757;29;20173;-95
2023/04/28 21:36:54;;;;;;;15.18;9.88;;;;;;;;;;4876967;29;20088;-93
2023/04/28 21:39:26;;;;;;;15.73;10.70;;;;;;;;;;4876976;29;20030;-94
2023/04/28 21:41:52;;;;;;;15.82;10.38;;;;;;;;;;4877596;29;20066;-93
2023/04/28 21:44:21;;;;;;;15.88;11.02;;;;;;;;;;4876444;29;20032;-95
2023/04/28 21:46:50;;;;;;;12.73;9.05;;;;;;;;;;4876467;29;20044;-93
2023/04/28 21:49:16;;;;;;;13.30;9.88;;;;;;;;;;4876139;29;20029;-93
2023/04/28 21:52:07;;;;;;;15.77;9.80;;;;;;;;;;4876112;29;20120;-94
2023/04/28 21:54:33;;;;;;;17.27;9.75;;;;;;;;;;4876377;29;20101;-93
2023/04/28 21:57:00;;;;;;;20.45;9.98;;;;;;;;;;4876216;29;20054;-92
2023/04/28 21:59:29;;;;;;;15.05;9.45;;;;;;;;;;4876713;29;20061;-93
2023/04/28 22:01:56;;;;;;;16.20;10.38;;;;;;;;;;4876855;29;20025;-94
2023/04/28 22:04:23;;;;;;;15.95;10.50;;;;;;;;;;4877208;29;20120;-93
2023/04/28 22:06:59;;;;;;;17.95;10.60;;;;;;;;;;4876760;29;20065;-95
2023/04/28 22:09:26;;;;;;;14.88;9.68;;;;;;;;;;4876921;29;20046;-92
2023/04/28 22:11:53;;;;;;;15.43;10.95;;;;;;;;;;4876104;29;20144;-92
2023/04/28 22:14:19;;;;;;;15.93;10.25;;;;;;;;;;4876097;29;20050;-93
2023/04/28 22:16:45;;;;;;;14.25;10.75;;;;;;;;;;4876122;29;20025;-92
2023/04/28 22:19:11;;;;;;;19.20;11.82;;;;;;;;;;4876102;29;20025;-92
2023/04/28 22:21:38;;;;;;;13.77;10.63;;;;;;;;;;4875944;29;20033;-93
2023/04/28 22:24:05;;;;;;;16.08;10.52;;;;;;;;;;4876652;29;20037;-93
2023/04/28 22:26:37;;;;;;;14.75;9.80;;;;;;;;;;4876282;29;20399;-93
2023/04/28 22:29:03;;;;;;;15.25;11.23;;;;;;;;;;4881657;29;20013;-91
2023/04/28 22:31:30;;;;;;;14.25;10.00;;;;;;;;;;4893012;29;20033;-92
2023/04/28 22:33:56;;;;;;;16.83;10.85;;;;;;;;;;4877380;29;20495;-93
2023/04/28 22:36:22;;;;;;;19.85;10.98;;;;;;;;;;4876471;29;20025;-92
2023/04/28 22:38:48;;;;;;;17.45;10.85;;;;;;;;;;4875894;29;20029;-93
2023/04/28 22:41:14;;;;;;;15.52;10.55;;;;;;;;;;4876130;29;20053;-93
2023/04/28 22:43:42;;;;;;;15.68;10.70;;;;;;;;;;4876340;29;20042;-92
2023/04/28 22:46:08;;;;;;;17.30;10.43;;;;;;;;;;4876212;29;20034;-95
2023/04/28 22:48:34;;;;;;;17.02;10.00;;;;;;;;;;4877484;29;20033;-90
2023/04/28 22:51:01;;;;;;;16.88;11.50;;;;;;;;;;4876148;29;20159;-92
2023/04/28 22:53:27;;;;;;;14.77;10.60;;;;;;;;;;4876313;29;20052;-91
2023/04/28 22:55:56;;;;;;;17.92;11.93;;;;;;;;;;4876013;29;20026;-92
2023/04/28 22:58:22;;;;;;;14.95;11.35;;;;;;;;;;4875839;29;20036;-93
2023/04/28 23:00:48;;;;;;;17.95;11.93;;;;;;;;;;4876470;29;20026;-93
2023/04/28 23:03:15;;;;;;;23.83;11.38;;;;;;;;;;4876091;29;20121;-92
2023/04/28 23:05:45;;;;;;;16.55;11.00;;;;;;;;;;4875849;29;20030;-93
2023/04/28 23:08:12;;;;;;;19.92;10.90;;;;;;;;;;4878368;29;20058;-92
2023/04/28 23:10:38;;;;;;;16.88;10.57;;;;;;;;;;4879041;29;20030;-93
2023/04/28 23:13:04;;;;;;;17.85;10.05;;;;;;;;;;4879065;29;20495;-92
2023/04/28 23:15:31;;;;;;;17.52;12.13;;;;;;;;;;4879524;29;20053;-91
2023/04/28 23:17:57;;;;;;;20.80;13.15;;;;;;;;;;4878995;29;20037;-93
2023/04/28 23:20:23;;;;;;;17.60;12.07;;;;;;;;;;4878778;29;20116;-93
2023/04/28 23:22:49;;;;;;;14.38;10.20;;;;;;;;;;4879160;29;20125;-93
2023/04/28 23:25:15;;;;;;;23.13;18.65;;;;;;;;;;4878813;29;20037;-93
2023/04/28 23:27:42;;;;;;;23.23;15.23;;;;;;;;;;4878666;29;20477;-93
2023/04/28 23:30:08;;;;;;;19.55;14.02;;;;;;;;;;4878732;29;20427;-93
2023/04/28 23:32:34;;;;;;;22.35;15.35;;;;;;;;;;4878733;29;20495;-93
2023/04/28 23:35:01;;;;;;;20.65;15.27;;;;;;;;;;4879659;29;20033;-91
2023/04/28 23:37:27;;;;;;;21.73;14.02;;;;;;;;;;4916493;29;20055;-93
2023/04/28 23:39:53;;;;;;;17.65;11.80;;;;;;;;;;4916411;29;20025;-92
2023/04/28 23:42:19;;;;;;;19.50;11.73;;;;;;;;;;4915932;29;20032;-92
2023/04/28 23:44:45;;;;;;;19.02;11.48;;;;;;;;;;4915947;29;20033;-93
2023/04/28 23:47:13;;;;;;;16.58;12.40;;;;;;;;;;4916001;29;20032;-93
2023/04/28 23:49:39;;;;;;;19.45;13.48;;;;;;;;;;4916131;29;20115;-93
2023/04/28 23:52:06;;;;;;;16.17;11.63;;;;;;;;;;4915590;29;20036;-93
2023/04/28 23:54:33;;;;;;;17.70;11.93;;;;;;;;;;4901409;29;20040;-92
2023/04/28 23:56:59;;;;;;;20.35;12.43;;;;;;;;;;4915812;29;20438;-93
2023/04/28 23:59:25;;;;;;;17.10;12.30;;;;;;;;;;4915753;29;20025;-93
